sensor_id;sensor_type;location;lat;lon;timestamp;pressure;altitude;pressure_sealevel;temperature;humidity
6425;BME280;12193;42.642;23.384;2023-05-03T00:00:48;94764.94;;;12.41;51.92
6425;BME280;12193;42.642;23.384;2023-05-03T00:03:17;94771.00;;;12.28;51.04
6425;BME280;12193;42.642;23.384;2023-05-03T00:05:48;94771.78;;;12.35;51.13
6425;BME280;12193;42.642;23.384;2023-05-03T03:08:25;94705.91;;;10.86;58.00
6425;BME280;12193;42.642;23.384;2023-05-03T03:10:54;94705.28;;;10.77;58.54
6425;BME280;12193;42.642;23.384;2023-05-03T03:13:24;94704.28;;;10.72;58.96
6425;BME280;12193;42.642;23.384;2023-05-03T03:15:54;94711.09;;;10.73;59.25
6425;BME280;12193;42.642;23.384;2023-05-03T03:18:23;94704.88;;;10.67;60.00
6425;BME280;12193;42.642;23.384;2023-05-03T03:20:52;94702.28;;;10.67;60.41
6425;BME280;12193;42.642;23.384;2023-05-03T03:23:24;94703.66;;;10.63;60.61
6425;BME280;12193;42.642;23.384;2023-05-03T03:25:53;94726.44;;;10.61;60.99
6425;BME280;12193;42.642;23.384;2023-05-03T03:28:23;94723.25;;;10.66;61.08
6425;BME280;12193;42.642;23.384;2023-05-03T03:30:52;94729.81;;;10.55;61.43
6425;BME280;12193;42.642;23.384;2023-05-03T03:33:22;94726.22;;;10.63;61.09
6425;BME280;12193;42.642;23.384;2023-05-03T03:35:51;94733.84;;;10.64;60.85
6425;BME280;12193;42.642;23.384;2023-05-03T03:38:20;94732.63;;;10.60;60.96
6425;BME280;12193;42.642;23.384;2023-05-03T03:40:52;94731.81;;;10.53;61.35
6425;BME280;12193;42.642;23.384;2023-05-03T03:43:22;94736.03;;;10.61;60.87
6425;BME280;12193;42.642;23.384;2023-05-03T03:45:51;94725.03;;;10.59;60.57
6425;BME280;12193;42.642;23.384;2023-05-03T03:48:20;94740.66;;;10.59;60.77
6425;BME280;12193;42.642;23.384;2023-05-03T03:50:50;94744.81;;;10.60;60.84
6425;BME280;12193;42.642;23.384;2023-05-03T03:53:19;94751.22;;;10.64;60.93
6425;BME280;12193;42.642;23.384;2023-05-03T03:55:52;94756.81;;;10.61;60.92
6425;BME280;12193;42.642;23.384;2023-05-03T03:58:21;94764.03;;;10.59;60.67
6425;BME280;12193;42.642;23.384;2023-05-03T04:00:50;94767.81;;;10.56;61.04
6425;BME280;12193;42.642;23.384;2023-05-03T04:03:20;94764.03;;;10.59;60.49
6425;BME280;12193;42.642;23.384;2023-05-03T04:05:49;94769.41;;;10.57;61.03
6425;BME280;12193;42.642;23.384;2023-05-03T04:08:19;94767.22;;;10.61;60.72
6425;BME280;12193;42.642;23.384;2023-05-03T04:10:50;94781.81;;;10.62;60.30
6425;BME280;12193;42.642;23.384;2023-05-03T04:13:20;94785.38;;;10.54;60.75
6425;BME280;12193;42.642;23.384;2023-05-03T04:15:53;94777.41;;;10.56;60.63
6425;BME280;12193;42.642;23.384;2023-05-03T04:18:23;94788.22;;;10.59;60.47
6425;BME280;12193;42.642;23.384;2023-05-03T04:20:52;94789.00;;;10.60;60.74
6425;BME280;12193;42.642;23.384;2023-05-03T04:23:21;94787.00;;;10.62;60.83
6425;BME280;12193;42.642;23.384;2023-05-03T04:25:53;94787.25;;;10.67;61.22
6425;BME280;12193;42.642;23.384;2023-05-03T04:28:23;94802.19;;;10.52;62.63
6425;BME280;12193;42.642;23.384;2023-05-03T04:30:53;94805.75;;;10.44;62.93
6425;BME280;12193;42.642;23.384;2023-05-03T04:33:24;94806.66;;;10.31;64.40
6425;BME280;12193;42.642;23.384;2023-05-03T04:35:54;94809.69;;;10.34;63.98
6425;BME280;12193;42.642;23.384;2023-05-03T04:38:24;94807.69;;;10.36;63.77
6425;BME280;12193;42.642;23.384;2023-05-03T04:40:56;94816.53;;;10.41;64.54
6425;BME280;12193;42.642;23.384;2023-05-03T04:43:25;94810.09;;;10.37;64.69
6425;BME280;12193;42.642;23.384;2023-05-03T04:45:54;94808.66;;;10.29;64.59
6425;BME280;12193;42.642;23.384;2023-05-03T04:48:24;94810.81;;;10.25;63.65
6425;BME280;12193;42.642;23.384;2023-05-03T04:50:53;94825.25;;;10.28;64.77
6425;BME280;12193;42.642;23.384;2023-05-03T04:53:23;94837.00;;;10.24;65.45
6425;BME280;12193;42.642;23.384;2023-05-03T04:55:52;94824.38;;;10.21;65.98
6425;BME280;12193;42.642;23.384;2023-05-03T04:58:24;94838.16;;;10.21;66.56
6425;BME280;12193;42.642;23.384;2023-05-03T05:00:54;94832.94;;;10.15;68.00
6425;BME280;12193;42.642;23.384;2023-05-03T05:03:23;94841.06;;;10.05;70.20
6425;BME280;12193;42.642;23.384;2023-05-03T05:05:53;94838.28;;;9.86;71.56
6425;BME280;12193;42.642;23.384;2023-05-03T05:08:22;94848.59;;;9.79;72.19
6425;BME280;12193;42.642;23.384;2023-05-03T05:10:52;94847.59;;;9.80;72.05
6425;BME280;12193;42.642;23.384;2023-05-03T05:13:24;94853.06;;;9.85;71.51
6425;BME280;12193;42.642;23.384;2023-05-03T05:15:53;94852.69;;;9.88;71.76
6425;BME280;12193;42.642;23.384;2023-05-03T05:18:22;94860.53;;;9.95;73.00
6425;BME280;12193;42.642;23.384;2023-05-03T05:20:52;94860.53;;;9.95;73.10
6425;BME280;12193;42.642;23.384;2023-05-03T05:23:21;94865.34;;;9.98;73.70
6425;BME280;12193;42.642;23.384;2023-05-03T05:25:50;94861.66;;;10.07;72.50
6425;BME280;12193;42.642;23.384;2023-05-03T05:28:20;94863.94;;;10.16;71.87
6425;BME280;12193;42.642;23.384;2023-05-03T05:30:52;94866.97;;;10.26;71.89
6425;BME280;12193;42.642;23.384;2023-05-03T05:33:21;94862.59;;;10.27;70.88
6425;BME280;12193;42.642;23.384;2023-05-03T05:35:50;94862.81;;;10.32;70.95
6425;BME280;12193;42.642;23.384;2023-05-03T05:38:20;94859.88;;;10.41;69.72
6425;BME280;12193;42.642;23.384;2023-05-03T05:40:49;94859.50;;;10.44;70.14
6425;BME280;12193;42.642;23.384;2023-05-03T05:43:18;94867.56;;;10.55;68.98
6425;BME280;12193;42.642;23.384;2023-05-03T05:45:48;94864.00;;;10.63;69.10
6425;BME280;12193;42.642;23.384;2023-05-03T05:48:20;94856.75;;;10.52;70.01
6425;BME280;12193;42.642;23.384;2023-05-03T05:50:49;94849.97;;;10.57;69.74
6425;BME280;12193;42.642;23.384;2023-05-03T05:53:18;94857.00;;;10.57;69.36
6425;BME280;12193;42.642;23.384;2023-05-03T05:55:48;94846.72;;;10.42;70.19
6425;BME280;12193;42.642;23.384;2023-05-03T05:58:18;94850.72;;;10.45;69.60
6425;BME280;12193;42.642;23.384;2023-05-03T06:00:47;94853.06;;;10.40;70.37
6425;BME280;12193;42.642;23.384;2023-05-03T06:03:20;94845.34;;;10.46;69.90
6425;BME280;12193;42.642;23.384;2023-05-03T06:05:49;94852.91;;;10.41;70.11
6425;BME280;12193;42.642;23.384;2023-05-03T06:08:18;94843.38;;;10.55;69.51
6425;BME280;12193;42.642;23.384;2023-05-03T06:10:47;94847.72;;;10.48;69.72
6425;BME280;12193;42.642;23.384;2023-05-03T06:13:18;94840.97;;;10.53;70.72
6425;BME280;12193;42.642;23.384;2023-05-03T06:15:47;94825.81;;;10.57;69.99
6425;BME280;12193;42.642;23.384;2023-05-03T06:18:16;94844.19;;;10.62;68.85
6425;BME280;12193;42.642;23.384;2023-05-03T06:20:50;94849.59;;;10.60;68.22
6425;BME280;12193;42.642;23.384;2023-05-03T06:23:19;94847.44;;;10.70;69.98
6425;BME280;12193;42.642;23.384;2023-05-03T06:25:49;94845.09;;;10.82;69.39
6425;BME280;12193;42.642;23.384;2023-05-03T06:28:18;94854.13;;;10.86;69.29
6425;BME280;12193;42.642;23.384;2023-05-03T06:30:48;94844.72;;;10.91;69.56
6425;BME280;12193;42.642;23.384;2023-05-03T06:33:17;94844.94;;;10.90;70.45
6425;BME280;12193;42.642;23.384;2023-05-03T06:35:50;94848.53;;;10.89;67.35
6425;BME280;12193;42.642;23.384;2023-05-03T06:38:19;94834.16;;;10.93;68.57
6425;BME280;12193;42.642;23.384;2023-05-03T06:40:48;94831.56;;;10.93;69.03
6425;BME280;12193;42.642;23.384;2023-05-03T06:43:18;94832.34;;;10.93;68.10
6425;BME280;12193;42.642;23.384;2023-05-03T06:45:50;94827.19;;;11.00;69.32
6425;BME280;12193;42.642;23.384;2023-05-03T06:48:20;94817.19;;;11.03;69.10
6425;BME280;12193;42.642;23.384;2023-05-03T06:50:52;94817.41;;;11.08;68.37
6425;BME280;12193;42.642;23.384;2023-05-03T06:53:22;94819.22;;;11.14;68.20
6425;BME280;12193;42.642;23.384;2023-05-03T06:55:51;94814.81;;;11.08;68.61
6425;BME280;12193;42.642;23.384;2023-05-03T06:58:21;94810.78;;;11.12;68.83
6425;BME280;12193;42.642;23.384;2023-05-03T07:00:51;94804.56;;;11.00;69.58
6425;BME280;12193;42.642;23.384;2023-05-03T07:03:22;94814.72;;;10.89;70.87
6425;BME280;12193;42.642;23.384;2023-05-03T07:05:54;94824.16;;;10.96;70.59
6425;BME280;12193;42.642;23.384;2023-05-03T07:08:23;94802.13;;;10.92;70.91
6425;BME280;12193;42.642;23.384;2023-05-03T07:10:53;94815.72;;;10.88;71.43
6425;BME280;12193;42.642;23.384;2023-05-03T07:13:22;94823.66;;;10.73;73.05
6425;BME280;12193;42.642;23.384;2023-05-03T07:15:51;94820.88;;;10.75;72.98
6425;BME280;12193;42.642;23.384;2023-05-03T07:18:21;94823.53;;;10.88;71.91
6425;BME280;12193;42.642;23.384;2023-05-03T07:20:53;94808.31;;;10.91;72.50
6425;BME280;12193;42.642;23.384;2023-05-03T07:23:22;94809.56;;;11.02;72.59
6425;BME280;12193;42.642;23.384;2023-05-03T07:25:52;94814.97;;;11.00;73.09
6425;BME280;12193;42.642;23.384;2023-05-03T07:28:21;94813.56;;;10.98;73.45
6425;BME280;12193;42.642;23.384;2023-05-03T07:30:50;94822.53;;;10.89;74.46
6425;BME280;12193;42.642;23.384;2023-05-03T07:33:20;94822.16;;;10.92;75.07
6425;BME280;12193;42.642;23.384;2023-05-03T07:35:49;94813.97;;;10.95;74.62
6425;BME280;12193;42.642;23.384;2023-05-03T07:38:21;94804.66;;;10.73;75.46
6425;BME280;12193;42.642;23.384;2023-05-03T07:40:50;94809.09;;;10.79;76.56
6425;BME280;12193;42.642;23.384;2023-05-03T07:43:20;94813.34;;;10.93;75.70
6425;BME280;12193;42.642;23.384;2023-05-03T07:45:49;94816.97;;;11.05;75.49
6425;BME280;12193;42.642;23.384;2023-05-03T07:48:18;94799.59;;;11.05;75.96
6425;BME280;12193;42.642;23.384;2023-05-03T07:50:48;94812.00;;;11.03;76.42
6425;BME280;12193;42.642;23.384;2023-05-03T07:53:17;94819.22;;;11.14;76.69
6425;BME280;12193;42.642;23.384;2023-05-03T07:55:52;94807.25;;;11.26;75.87
6425;BME280;12193;42.642;23.384;2023-05-03T07:58:22;94821.03;;;11.27;76.16
6425;BME280;12193;42.642;23.384;2023-05-03T08:00:52;94819.03;;;11.22;76.85
6425;BME280;12193;42.642;23.384;2023-05-03T08:03:21;94812.78;;;11.04;77.40
6425;BME280;12193;42.642;23.384;2023-05-03T08:05:50;94817.22;;;11.23;76.59
6425;BME280;12193;42.642;23.384;2023-05-03T08:08:20;94808.69;;;11.48;75.92
6425;BME280;12193;42.642;23.384;2023-05-03T08:10:53;94808.75;;;11.80;75.72
6425;BME280;12193;42.642;23.384;2023-05-03T08:13:23;94802.25;;;12.35;73.46
6425;BME280;12193;42.642;23.384;2023-05-03T08:15:52;94796.25;;;12.97;70.07
6425;BME280;12193;42.642;23.384;2023-05-03T08:18:21;94797.63;;;13.44;67.88
6425;BME280;12193;42.642;23.384;2023-05-03T08:20:50;94808.22;;;13.48;67.64
6425;BME280;12193;42.642;23.384;2023-05-03T08:23:20;94792.91;;;13.83;65.19
6425;BME280;12193;42.642;23.384;2023-05-03T08:25:53;94790.53;;;14.06;64.89
6425;BME280;12193;42.642;23.384;2023-05-03T08:28:22;94797.06;;;14.39;62.53
6425;BME280;12193;42.642;23.384;2023-05-03T08:30:52;94803.34;;;13.58;66.48
6425;BME280;12193;42.642;23.384;2023-05-03T08:33:21;94800.06;;;13.39;68.24
6425;BME280;12193;42.642;23.384;2023-05-03T08:35:51;94799.91;;;13.64;67.83
6425;BME280;12193;42.642;23.384;2023-05-03T08:38:20;94803.19;;;13.84;67.33
6425;BME280;12193;42.642;23.384;2023-05-03T08:40:53;94802.22;;;14.03;65.74
6425;BME280;12193;42.642;23.384;2023-05-03T08:43:26;94791.66;;;14.16;65.48
6425;BME280;12193;42.642;23.384;2023-05-03T08:45:56;94802.84;;;15.60;60.00
6425;BME280;12193;42.642;23.384;2023-05-03T08:48:25;94781.88;;;16.58;56.37
6425;BME280;12193;42.642;23.384;2023-05-03T08:50:55;94790.53;;;15.02;59.64
6425;BME280;12193;42.642;23.384;2023-05-03T08:53:26;94808.66;;;14.85;61.67
6425;BME280;12193;42.642;23.384;2023-05-03T08:55:58;94803.56;;;14.90;62.13
6425;BME280;12193;42.642;23.384;2023-05-03T08:58:27;94798.78;;;15.35;60.12
6425;BME280;12193;42.642;23.384;2023-05-03T09:01:03;94794.75;;;16.14;57.48
6425;BME280;12193;42.642;23.384;2023-05-03T09:03:32;94799.97;;;15.21;61.21
6425;BME280;12193;42.642;23.384;2023-05-03T09:06:02;94811.59;;;14.35;64.64
6425;BME280;12193;42.642;23.384;2023-05-03T09:08:41;94808.56;;;14.56;63.82
6425;BME280;12193;42.642;23.384;2023-05-03T09:11:22;94795.97;;;15.00;63.03
6425;BME280;12193;42.642;23.384;2023-05-03T09:13:52;94792.28;;;14.90;62.10
6425;BME280;12193;42.642;23.384;2023-05-03T09:16:22;94774.72;;;16.42;57.71
6425;BME280;12193;42.642;23.384;2023-05-03T09:18:56;94774.34;;;16.27;57.66
6425;BME280;12193;42.642;23.384;2023-05-03T09:21:26;94776.19;;;15.63;59.36
6425;BME280;12193;42.642;23.384;2023-05-03T09:23:56;94768.00;;;16.46;57.15
6425;BME280;12193;42.642;23.384;2023-05-03T09:26:33;94776.28;;;16.77;56.86
6425;BME280;12193;42.642;23.384;2023-05-03T09:29:03;94770.69;;;16.63;55.14
6425;BME280;12193;42.642;23.384;2023-05-03T09:31:34;94767.00;;;17.26;56.35
6425;BME280;12193;42.642;23.384;2023-05-03T09:34:20;94761.25;;;16.50;57.65
6425;BME280;12193;42.642;23.384;2023-05-03T09:36:50;94755.72;;;15.71;59.28
6425;BME280;12193;42.642;23.384;2023-05-03T09:39:20;94751.66;;;15.98;58.93
6425;BME280;12193;42.642;23.384;2023-05-03T09:41:53;94741.72;;;16.58;55.83
6425;BME280;12193;42.642;23.384;2023-05-03T09:44:39;94742.16;;;16.66;56.08
6425;BME280;12193;42.642;23.384;2023-05-03T09:47:09;94741.06;;;18.06;51.66
6425;BME280;12193;42.642;23.384;2023-05-03T09:49:39;94747.69;;;16.92;54.72
6425;BME280;12193;42.642;23.384;2023-05-03T09:52:08;94732.69;;;18.09;52.06
6425;BME280;12193;42.642;23.384;2023-05-03T09:54:38;94732.50;;;18.49;49.42
6425;BME280;12193;42.642;23.384;2023-05-03T09:57:11;94736.81;;;16.50;57.25
6425;BME280;12193;42.642;23.384;2023-05-03T09:59:44;94735.28;;;16.76;56.50
6425;BME280;12193;42.642;23.384;2023-05-03T10:02:16;94726.91;;;16.40;57.89
6425;BME280;12193;42.642;23.384;2023-05-03T10:04:48;94723.97;;;16.37;58.59
6425;BME280;12193;42.642;23.384;2023-05-03T10:07:20;94737.09;;;16.37;58.29
6425;BME280;12193;42.642;23.384;2023-05-03T10:09:51;94726.13;;;16.28;58.53
6425;BME280;12193;42.642;23.384;2023-05-03T10:12:25;94729.19;;;16.87;56.59
6425;BME280;12193;42.642;23.384;2023-05-03T10:14:56;94725.53;;;17.88;55.37
6425;BME280;12193;42.642;23.384;2023-05-03T10:17:29;94723.09;;;18.36;53.53
6425;BME280;12193;42.642;23.384;2023-05-03T10:20:09;94717.56;;;17.51;55.32
6425;BME280;12193;42.642;23.384;2023-05-03T10:23:07;94698.16;;;17.12;57.55
6425;BME280;12193;42.642;23.384;2023-05-03T10:25:37;94700.41;;;16.92;57.08
6425;BME280;12193;42.642;23.384;2023-05-03T10:28:09;94694.34;;;17.80;54.44
6425;BME280;12193;42.642;23.384;2023-05-03T10:30:40;94688.28;;;17.96;54.24
6425;BME280;12193;42.642;23.384;2023-05-03T10:33:30;94687.81;;;18.54;51.76
6425;BME280;12193;42.642;23.384;2023-05-03T10:36:05;94679.00;;;17.56;54.31
6425;BME280;12193;42.642;23.384;2023-05-03T10:38:35;94687.97;;;16.99;56.81
6425;BME280;12193;42.642;23.384;2023-05-03T10:41:05;94686.47;;;17.48;55.08
6425;BME280;12193;42.642;23.384;2023-05-03T10:43:54;94694.75;;;16.84;56.83
6425;BME280;12193;42.642;23.384;2023-05-03T10:46:32;94690.53;;;16.83;57.04
6425;BME280;12193;42.642;23.384;2023-05-03T10:49:15;94683.44;;;16.44;59.16
6425;BME280;12193;42.642;23.384;2023-05-03T10:51:45;94695.09;;;16.37;60.34
6425;BME280;12193;42.642;23.384;2023-05-03T10:54:14;94709.00;;;16.49;60.61
6425;BME280;12193;42.642;23.384;2023-05-03T10:56:49;94717.34;;;17.13;56.32
6425;BME280;12193;42.642;23.384;2023-05-03T10:59:21;94712.44;;;17.16;54.28
6425;BME280;12193;42.642;23.384;2023-05-03T11:01:51;94696.63;;;17.28;54.37
6425;BME280;12193;42.642;23.384;2023-05-03T11:04:37;94700.00;;;17.40;54.74
6425;BME280;12193;42.642;23.384;2023-05-03T11:07:10;94685.53;;;17.70;53.00
6425;BME280;12193;42.642;23.384;2023-05-03T11:09:48;94679.69;;;17.68;53.66
6425;BME280;12193;42.642;23.384;2023-05-03T11:12:17;94681.44;;;17.46;54.34
6425;BME280;12193;42.642;23.384;2023-05-03T11:14:49;94677.53;;;17.04;56.21
6425;BME280;12193;42.642;23.384;2023-05-03T11:17:18;94684.72;;;17.09;55.79
6425;BME280;12193;42.642;23.384;2023-05-03T11:19:49;94686.66;;;17.30;56.53
6425;BME280;12193;42.642;23.384;2023-05-03T11:22:18;94671.66;;;17.42;55.38
6425;BME280;12193;42.642;23.384;2023-05-03T11:24:47;94678.91;;;17.51;56.30
6425;BME280;12193;42.642;23.384;2023-05-03T11:27:22;94672.94;;;17.72;56.30
6425;BME280;12193;42.642;23.384;2023-05-03T11:29:54;94658.03;;;18.15;54.23
6425;BME280;12193;42.642;23.384;2023-05-03T11:32:26;94661.44;;;19.44;50.08
6425;BME280;12193;42.642;23.384;2023-05-03T11:34:56;94667.22;;;18.93;51.80
6425;BME280;12193;42.642;23.384;2023-05-03T11:37:27;94670.22;;;18.21;53.47
6425;BME280;12193;42.642;23.384;2023-05-03T11:39:58;94667.41;;;18.66;52.51
6425;BME280;12193;42.642;23.384;2023-05-03T11:42:27;94657.03;;;19.91;48.29
6425;BME280;12193;42.642;23.384;2023-05-03T11:44:59;94660.50;;;19.07;51.63
6425;BME280;12193;42.642;23.384;2023-05-03T11:47:29;94652.22;;;17.59;57.15
6425;BME280;12193;42.642;23.384;2023-05-03T11:49:59;94643.56;;;17.14;60.99
6425;BME280;12193;42.642;23.384;2023-05-03T11:52:29;94635.16;;;16.57;62.59
6425;BME280;12193;42.642;23.384;2023-05-03T11:54:59;94649.94;;;16.35;63.84
6425;BME280;12193;42.642;23.384;2023-05-03T11:57:31;94649.59;;;16.20;64.56
6425;BME280;12193;42.642;23.384;2023-05-03T12:00:13;94657.94;;;16.05;65.99
6425;BME280;12193;42.642;23.384;2023-05-03T12:02:42;94649.69;;;16.25;66.16
6425;BME280;12193;42.642;23.384;2023-05-03T12:05:14;94639.41;;;16.46;64.46
6425;BME280;12193;42.642;23.384;2023-05-03T12:07:43;94645.44;;;16.47;63.09
6425;BME280;12193;42.642;23.384;2023-05-03T12:10:14;94640.66;;;16.44;63.30
6425;BME280;12193;42.642;23.384;2023-05-03T12:12:53;94642.41;;;16.04;64.99
6425;BME280;12193;42.642;23.384;2023-05-03T12:15:31;94657.38;;;15.92;65.38
6425;BME280;12193;42.642;23.384;2023-05-03T12:18:04;94658.25;;;15.52;67.55
6425;BME280;12193;42.642;23.384;2023-05-03T12:20:35;94648.91;;;15.33;67.43
6425;BME280;12193;42.642;23.384;2023-05-03T12:23:06;94639.94;;;15.11;68.89
6425;BME280;12193;42.642;23.384;2023-05-03T12:25:36;94660.13;;;15.22;69.38
6425;BME280;12193;42.642;23.384;2023-05-03T12:28:05;94654.69;;;14.94;70.27
6425;BME280;12193;42.642;23.384;2023-05-03T12:30:37;94656.31;;;14.95;70.51
6425;BME280;12193;42.642;23.384;2023-05-03T12:33:07;94665.56;;;14.79;72.04
6425;BME280;12193;42.642;23.384;2023-05-03T12:35:36;94660.38;;;14.61;72.77
6425;BME280;12193;42.642;23.384;2023-05-03T12:38:05;94640.78;;;14.82;72.61
6425;BME280;12193;42.642;23.384;2023-05-03T12:40:35;94635.47;;;14.88;72.73
6425;BME280;12193;42.642;23.384;2023-05-03T12:43:04;94643.03;;;15.08;71.79
6425;BME280;12193;42.642;23.384;2023-05-03T12:45:33;94644.72;;;15.02;72.21
6425;BME280;12193;42.642;23.384;2023-05-03T12:48:05;94637.88;;;15.01;71.86
6425;BME280;12193;42.642;23.384;2023-05-03T12:50:34;94644.38;;;14.99;72.39
6425;BME280;12193;42.642;23.384;2023-05-03T12:53:04;94636.81;;;14.91;73.41
6425;BME280;12193;42.642;23.384;2023-05-03T12:55:33;94643.28;;;14.77;75.93
6425;BME280;12193;42.642;23.384;2023-05-03T12:58:02;94641.78;;;14.69;78.26
6425;BME280;12193;42.642;23.384;2023-05-03T13:00:32;94647.78;;;14.41;80.44
6425;BME280;12193;42.642;23.384;2023-05-03T13:03:02;94634.13;;;14.21;81.12
6425;BME280;12193;42.642;23.384;2023-05-03T13:05:35;94652.56;;;14.08;83.55
6425;BME280;12193;42.642;23.384;2023-05-03T13:08:04;94660.31;;;13.96;86.78
6425;BME280;12193;42.642;23.384;2023-05-03T13:10:34;94655.69;;;13.80;86.57
6425;BME280;12193;42.642;23.384;2023-05-03T13:13:03;94645.72;;;13.71;86.14
6425;BME280;12193;42.642;23.384;2023-05-03T13:15:34;94643.59;;;13.61;84.98
6425;BME280;12193;42.642;23.384;2023-05-03T13:18:05;94656.66;;;13.61;86.04
6425;BME280;12193;42.642;23.384;2023-05-03T13:20:37;94665.00;;;13.52;85.54
6425;BME280;12193;42.642;23.384;2023-05-03T13:23:06;94666.00;;;13.51;86.40
6425;BME280;12193;42.642;23.384;2023-05-03T13:25:36;94671.16;;;13.33;88.24
6425;BME280;12193;42.642;23.384;2023-05-03T13:28:05;94675.03;;;13.00;93.23
6425;BME280;12193;42.642;23.384;2023-05-03T13:30:35;94667.69;;;12.77;100.00
6425;BME280;12193;42.642;23.384;2023-05-03T13:33:04;94677.53;;;12.38;100.00
6425;BME280;12193;42.642;23.384;2023-05-03T13:35:37;94676.00;;;12.18;100.00
6425;BME280;12193;42.642;23.384;2023-05-03T13:38:06;94671.63;;;12.05;100.00
6425;BME280;12193;42.642;23.384;2023-05-03T13:40:35;94661.47;;;11.91;100.00
6425;BME280;12193;42.642;23.384;2023-05-03T13:43:04;94667.09;;;11.88;100.00
6425;BME280;12193;42.642;23.384;2023-05-03T13:45:33;94661.72;;;11.70;100.00
6425;BME280;12193;42.642;23.384;2023-05-03T13:48:03;94662.72;;;11.62;100.00
6425;BME280;12193;42.642;23.384;2023-05-03T13:50:32;94668.53;;;11.58;100.00
6425;BME280;12193;42.642;23.384;2023-05-03T13:53:04;94684.53;;;11.42;100.00
6425;BME280;12193;42.642;23.384;2023-05-03T13:55:34;94687.16;;;11.29;100.00
6425;BME280;12193;42.642;23.384;2023-05-03T13:58:03;94686.34;;;11.29;100.00
6425;BME280;12193;42.642;23.384;2023-05-03T14:00:33;94692.34;;;11.29;100.00
6425;BME280;12193;42.642;23.384;2023-05-03T14:03:02;94685.56;;;11.28;100.00
6425;BME280;12193;42.642;23.384;2023-05-03T14:05:32;94684.75;;;11.21;100.00
6425;BME280;12193;42.642;23.384;2023-05-03T14:08:04;94678.53;;;11.09;100.00
6425;BME280;12193;42.642;23.384;2023-05-03T14:10:33;94670.13;;;11.07;100.00
6425;BME280;12193;42.642;23.384;2023-05-03T14:13:03;94676.72;;;11.10;100.00
6425;BME280;12193;42.642;23.384;2023-05-03T14:15:37;94666.31;;;11.23;100.00
6425;BME280;12193;42.642;23.384;2023-05-03T14:18:07;94674.53;;;11.33;100.00
6425;BME280;12193;42.642;23.384;2023-05-03T14:20:37;94670.75;;;11.54;100.00
6425;BME280;12193;42.642;23.384;2023-05-03T14:23:09;94681.53;;;11.64;100.00
6425;BME280;12193;42.642;23.384;2023-05-03T14:25:38;94676.34;;;11.71;100.00
6425;BME280;12193;42.642;23.384;2023-05-03T14:28:07;94679.72;;;11.71;100.00
6425;BME280;12193;42.642;23.384;2023-05-03T14:30:37;94681.94;;;11.55;100.00
6425;BME280;12193;42.642;23.384;2023-05-03T14:33:06;94676.94;;;11.47;100.00
6425;BME280;12193;42.642;23.384;2023-05-03T14:35:35;94674.13;;;11.42;100.00
6425;BME280;12193;42.642;23.384;2023-05-03T14:38:05;94674.72;;;11.44;100.00
6425;BME280;12193;42.642;23.384;2023-05-03T14:40:37;94653.53;;;11.40;100.00
6425;BME280;12193;42.642;23.384;2023-05-03T14:43:06;94650.31;;;11.38;100.00
6425;BME280;12193;42.642;23.384;2023-05-03T14:45:36;94678.53;;;11.16;100.00
6425;BME280;12193;42.642;23.384;2023-05-03T14:48:06;94670.34;;;11.19;100.00
6425;BME280;12193;42.642;23.384;2023-05-03T14:50:35;94675.13;;;11.15;100.00
6425;BME280;12193;42.642;23.384;2023-05-03T14:53:04;94682.94;;;11.15;100.00
6425;BME280;12193;42.642;23.384;2023-05-03T14:55:36;94671.75;;;11.08;100.00
6425;BME280;12193;42.642;23.384;2023-05-03T14:58:06;94663.13;;;10.95;100.00
6425;BME280;12193;42.642;23.384;2023-05-03T15:00:36;94659.69;;;10.94;100.00
6425;BME280;12193;42.642;23.384;2023-05-03T15:03:06;94661.31;;;10.95;100.00
6425;BME280;12193;42.642;23.384;2023-05-03T15:05:44;94666.31;;;10.97;100.00
6425;BME280;12193;42.642;23.384;2023-05-03T15:08:14;94676.91;;;10.95;100.00
6425;BME280;12193;42.642;23.384;2023-05-03T15:10:47;94685.72;;;10.94;100.00
6425;BME280;12193;42.642;23.384;2023-05-03T15:13:17;94684.31;;;10.92;100.00
6425;BME280;12193;42.642;23.384;2023-05-03T15:15:47;94691.31;;;10.91;100.00
6425;BME280;12193;42.642;23.384;2023-05-03T15:18:16;94695.31;;;10.94;100.00
6425;BME280;12193;42.642;23.384;2023-05-03T15:20:45;94683.72;;;10.96;100.00
6425;BME280;12193;42.642;23.384;2023-05-03T15:23:14;94662.50;;;11.12;100.00
6425;BME280;12193;42.642;23.384;2023-05-03T15:25:47;94664.94;;;11.20;100.00
6425;BME280;12193;42.642;23.384;2023-05-03T15:28:16;94668.13;;;11.22;100.00
6425;BME280;12193;42.642;23.384;2023-05-03T15:30:46;94681.13;;;11.22;100.00
6425;BME280;12193;42.642;23.384;2023-05-03T15:33:15;94693.75;;;11.32;100.00
6425;BME280;12193;42.642;23.384;2023-05-03T15:35:44;94700.94;;;11.30;100.00
6425;BME280;12193;42.642;23.384;2023-05-03T15:38:14;94691.34;;;11.37;100.00
6425;BME280;12193;42.642;23.384;2023-05-03T15:40:46;94686.34;;;11.35;100.00
6425;BME280;12193;42.642;23.384;2023-05-03T15:43:16;94674.13;;;11.36;100.00
6425;BME280;12193;42.642;23.384;2023-05-03T15:45:45;94659.91;;;11.38;100.00
6425;BME280;12193;42.642;23.384;2023-05-03T15:48:14;94675.13;;;11.41;100.00
6425;BME280;12193;42.642;23.384;2023-05-03T15:50:44;94689.97;;;11.40;100.00
6425;BME280;12193;42.642;23.384;2023-05-03T15:53:13;94695.94;;;11.41;100.00
6425;BME280;12193;42.642;23.384;2023-05-03T15:55:42;94679.56;;;11.40;100.00
6425;BME280;12193;42.642;23.384;2023-05-03T15:58:14;94687.75;;;11.38;100.00
6425;BME280;12193;42.642;23.384;2023-05-03T16:00:44;94698.34;;;11.36;100.00
6425;BME280;12193;42.642;23.384;2023-05-03T16:03:14;94700.56;;;11.33;100.00
6425;BME280;12193;42.642;23.384;2023-05-03T16:05:43;94692.75;;;11.26;100.00
6425;BME280;12193;42.642;23.384;2023-05-03T16:08:13;94683.34;;;11.38;100.00
6425;BME280;12193;42.642;23.384;2023-05-03T16:10:42;94692.13;;;11.43;100.00
6425;BME280;12193;42.642;23.384;2023-05-03T16:13:14;94678.53;;;11.35;100.00
6425;BME280;12193;42.642;23.384;2023-05-03T16:15:44;94685.34;;;11.17;100.00